Kalaheo, HI

1:20 PM HST on November 27, 2014 (GMT -1000)
Koloa Landing - Whaler's Cove | Change Station
CLOSE
Current Station
Personal Weather Station
Location: Koloa, HI
Elevation: 25 ft
Nearby Weather Stations
Active Advisory: High Surf Advisory

Elev 25 ft 21.88 °N, 159.47 °W | Updated 41 seconds ago

Scattered Clouds
Scattered Clouds
80.6 °F
Feels Like 81 °F
N
3.4
Wind Variable Wind from South
Gusts 4.9 mph

Today
High -- | Low -- °F
--% Chance of Precip.
Yesterday
High -- | Low -- °F
Precip. -- in
6:57 AM 5:53 PM
Waxing Crescent, 34% visible
Pressure 30.06 in
Visibility 10.0 miles
Clouds Scattered Clouds 4000 ft
Heat Index 81 °F
Dew Point 60 °F
Humidity 49%
Rainfall 0.00 in
Snow Depth Not available.
UV 5 out of 12
Pollen Not available.
Air Quality Not available.
Flu Activity Not available.
METAR PHLI 272253Z 05016G23KT 10SM SCT040 27/15 A3006 RMK AO2 SLP177 T02670150 $

More Conditions Fewer Conditions

Pressure 30.06 in
Visibility 10.0 miles
Clouds Scattered Clouds 4000 ft
Heat Index 81 °F
Dew Point 60 °F
Humidity 49%
Rainfall 0.00 in
Snow Depth Not available.
UV 5 out of 12
Pollen Not available.
Air Quality Not available.
Flu Activity Not available.
METAR PHLI 272253Z 05016G23KT 10SM SCT040 27/15 A3006 RMK AO2 SLP177 T02670150 $

More Conditions Fewer Conditions

10-Day Weather Forecast

Almanac

Astronomy

Nov. 27, 2014 Rise Set
Actual Time
Civil Twilight
Nautical Twilight
Astronomical Twilight
Moon
Length of Visible Light
Length of Day
Tomorrow will be .
, % of the Moon is Illuminated

Today's Extremes

State Highs State Lows

Community

WunderPhotos

Upload Photos

1,774,135 photos uploaded!

WunderBlogs® & News

Nearby

Air Quality

  Air Quality AQ Index Pollutant
Not available.

Snow Depth

Station Depth Elevation

Earthquake Activity

City Distance Mag. Time & Date
Minimum magnitude displayed is 2.5.

Coastal Water Temperatures

Place Temperature

Nearby Weather Stations